Mackenzie, Canada
Current Conditions -  °F | °C
As of 7:00 AM on Friday 24 Oct 2014 (Local Time) from CYZY Reporting Station
Overcast Overcast  
Wind Chill: 25°   Ceiling: 14000
Heat Index: 34°   Visibility: 9mi
Dew Point: 32°   Wind: 12mph
Humidity: 93%   Direction: 140°SE
Pressure: 29.85"   Gusts: NA
Location:  55.33°N, 123.09°W
Report Text: CYZY 241400Z AUTO 14010KT 9SM BKN140 OVC180 01/00 A2985 RMK SLP139
Loading
Personal Weather Stations






























Interactive Weather Map
Tropical Storm Tracking
New forecast layout! Learn more

10-Day Weather Forecast

Advertisements
Track Severe Weather on mobile